Time;durP1;ratioP1;P1;durP2;ratioP2;P2;SDS_P1;SDS_P2;PMS_P1;PMS_P2;Temp;Humidity;BMP_temperature;BMP_pressure;BME280_temperature;BME280_humidity;BME280_pressure;Samples;Min_cycle;Max_cycle;Signal;HPM_P1;HPM_P2
2021/07/08 00:01:44;;;;;;;9.33;3.70;;;21.30;99.90;;;;;;1834565;78;21036;-77
2021/07/08 00:04:13;;;;;;;10.28;3.77;;;21.40;99.90;;;;;;1874188;76;22161;-77
2021/07/08 00:06:41;;;;;;;10.40;3.40;;;21.40;99.90;;;;;;1883057;75;21547;-77
2021/07/08 00:09:10;;;;;;;10.00;3.67;;;21.30;99.90;;;;;;1883283;76;21090;-77
2021/07/08 00:11:38;;;;;;;5.95;3.58;;;21.30;99.90;;;;;;1873807;76;21570;-77
2021/07/08 00:14:07;;;;;;;9.83;3.67;;;21.30;99.90;;;;;;1872501;76;21077;-77
2021/07/08 00:16:38;;;;;;;10.23;3.70;;;21.30;99.90;;;;;;1884273;75;21586;-77
2021/07/08 00:19:07;;;;;;;9.10;3.27;;;21.30;99.90;;;;;;1900882;75;21647;-76
2021/07/08 00:21:36;;;;;;;8.33;3.40;;;21.30;99.90;;;;;;1914078;73;21114;-77
2021/07/08 00:24:05;;;;;;;11.33;3.52;;;21.40;99.90;;;;;;1908534;75;21104;-77
2021/07/08 00:26:34;;;;;;;8.65;3.42;;;21.30;99.90;;;;;;1912526;75;21081;-76
2021/07/08 00:29:01;;;;;;;8.80;3.37;;;21.30;99.90;;;;;;1913173;74;21030;-76
2021/07/08 00:31:29;;;;;;;9.28;3.40;;;21.30;99.90;;;;;;1891198;75;20995;-77
2021/07/08 00:34:00;;;;;;;10.10;3.75;;;21.30;99.90;;;;;;1882759;75;21035;-76
2021/07/08 00:36:26;;;;;;;9.13;3.30;;;21.30;99.90;;;;;;1906745;75;21137;-76
2021/07/08 00:38:53;;;;;;;7.87;3.00;;;21.30;99.90;;;;;;1913313;74;21055;-76
2021/07/08 00:41:21;;;;;;;10.80;3.30;;;21.30;99.90;;;;;;1912744;75;21007;-76
2021/07/08 00:43:51;;;;;;;8.40;3.12;;;21.30;99.90;;;;;;1899386;75;21500;-76
2021/07/08 00:46:21;;;;;;;7.55;3.20;;;21.30;99.90;;;;;;1912633;74;21087;-76
2021/07/08 00:48:49;;;;;;;7.60;3.17;;;21.30;99.90;;;;;;1912316;74;21188;-77
2021/07/08 00:51:16;;;;;;;7.25;3.17;;;21.20;99.90;;;;;;1906759;73;21171;-77
2021/07/08 00:53:44;;;;;;;12.37;3.27;;;21.20;99.90;;;;;;1901528;73;21546;-77
2021/07/08 00:56:13;;;;;;;7.10;2.80;;;21.20;99.90;;;;;;1891526;75;21399;-77
2021/07/08 00:58:42;;;;;;;7.47;2.67;;;21.10;99.90;;;;;;1911449;75;21602;-77
2021/07/08 01:01:12;;;;;;;6.33;2.77;;;21.20;99.90;;;;;;1909834;74;21035;-76
2021/07/08 01:03:40;;;;;;;9.13;2.98;;;21.10;99.90;;;;;;1896249;75;21964;-77
2021/07/08 01:06:09;;;;;;;6.62;2.90;;;21.10;99.90;;;;;;1879667;75;21113;-77
2021/07/08 01:08:36;;;;;;;9.05;2.87;;;21.10;99.90;;;;;;1906326;75;21105;-76
2021/07/08 01:11:04;;;;;;;7.78;3.30;;;21.10;99.90;;;;;;1899154;75;21162;-76
2021/07/08 01:13:31;;;;;;;9.65;3.00;;;21.00;99.90;;;;;;1890873;75;21102;-77
2021/07/08 01:15:59;;;;;;;6.37;2.90;;;21.00;99.90;;;;;;1903095;75;21119;-76
2021/07/08 01:18:26;;;;;;;6.55;2.80;;;21.00;99.90;;;;;;1912062;75;21507;-76
2021/07/08 01:20:54;;;;;;;8.73;2.98;;;21.10;99.90;;;;;;1909038;75;21171;-76
2021/07/08 01:23:21;;;;;;;6.45;2.72;;;21.10;99.90;;;;;;1891043;75;21112;-76
2021/07/08 01:25:49;;;;;;;7.28;2.80;;;21.20;99.90;;;;;;1896453;73;21196;-77
2021/07/08 01:28:16;;;;;;;6.58;2.90;;;21.20;99.90;;;;;;1911785;75;21027;-76
2021/07/08 01:30:46;;;;;;;6.78;2.87;;;21.20;99.90;;;;;;1909813;75;21191;-77
2021/07/08 01:33:13;;;;;;;7.37;2.83;;;21.20;99.90;;;;;;1883045;73;21088;-73
2021/07/08 01:35:41;;;;;;;6.65;3.00;;;21.20;99.90;;;;;;1853165;76;21059;-73
2021/07/08 01:38:08;;;;;;;7.55;3.05;;;21.30;99.90;;;;;;1875158;76;21143;-74
2021/07/08 01:40:36;;;;;;;7.25;3.30;;;21.30;99.90;;;;;;1877601;74;21596;-74
2021/07/08 01:43:03;;;;;;;12.75;3.33;;;21.30;99.90;;;;;;1867480;74;21224;-74
2021/07/08 01:45:31;;;;;;;5.80;2.50;;;21.30;99.90;;;;;;1908548;75;21685;-74
2021/07/08 01:47:58;;;;;;;6.92;3.12;;;21.30;99.90;;;;;;1891757;75;21553;-74
2021/07/08 01:50:26;;;;;;;8.95;3.30;;;21.30;99.90;;;;;;1881335;75;21172;-73
2021/07/08 01:52:54;;;;;;;7.62;3.27;;;21.30;99.90;;;;;;1880257;75;21105;-73
2021/07/08 01:55:21;;;;;;;10.10;3.50;;;21.30;99.90;;;;;;1892071;75;21152;-73
2021/07/08 01:57:57;;;;;;;13.43;3.30;;;21.20;99.90;;;;;;1896854;75;21151;-73
2021/07/08 02:00:25;;;;;;;6.80;3.27;;;21.30;99.90;;;;;;1896400;74;21187;-74
2021/07/08 02:02:54;;;;;;;9.65;3.47;;;21.20;99.90;;;;;;1879605;76;21100;-72
2021/07/08 02:05:22;;;;;;;7.72;3.35;;;21.20;99.90;;;;;;1895606;75;21525;-73
2021/07/08 02:07:49;;;;;;;14.18;3.50;;;21.20;99.90;;;;;;1879191;75;21622;-73
2021/07/08 02:10:19;;;;;;;9.63;3.30;;;21.10;99.90;;;;;;1879330;75;21240;-73
2021/07/08 02:12:46;;;;;;;9.33;2.85;;;21.20;99.90;;;;;;1906482;75;21468;-72
2021/07/08 02:15:15;;;;;;;6.80;3.42;;;21.20;99.90;;;;;;1881243;75;21108;-73
2021/07/08 02:17:42;;;;;;;8.85;3.70;;;21.30;99.90;;;;;;1915992;74;21029;-73
2021/07/08 02:20:13;;;;;;;7.67;3.92;;;21.30;99.90;;;;;;1892731;74;21176;-73
2021/07/08 02:22:41;;;;;;;10.15;3.67;;;21.30;99.90;;;;;;1890103;75;21194;-73
2021/07/08 02:25:10;;;;;;;9.05;3.60;;;21.30;99.90;;;;;;1887438;75;21189;-72
2021/07/08 02:27:38;;;;;;;11.28;3.98;;;21.30;99.90;;;;;;1880898;75;21094;-72
2021/07/08 02:30:17;;;;;;;12.35;4.10;;;21.30;99.90;;;;;;1894289;75;21128;-72
2021/07/08 02:32:48;;;;;;;9.58;4.22;;;21.30;99.90;;;;;;1889015;75;21017;-74
2021/07/08 02:35:15;;;;;;;8.88;3.92;;;21.30;99.90;;;;;;1898864;75;21169;-74
2021/07/08 02:37:44;;;;;;;8.25;4.00;;;21.40;99.90;;;;;;1898353;74;21136;-73
2021/07/08 02:40:14;;;;;;;8.78;4.10;;;21.40;99.90;;;;;;1893564;75;21024;-72
2021/07/08 02:42:50;;;;;;;11.97;3.92;;;21.40;99.90;;;;;;1891142;75;21113;-73
2021/07/08 02:45:13;;;;;;;6.80;4.00;;;21.50;99.90;;;;;;1878948;76;21125;-72
2021/07/08 02:47:40;;;;;;;10.50;4.00;;;21.50;99.90;;;;;;1879913;76;21182;-73
2021/07/08 02:50:09;;;;;;;11.28;4.75;;;21.50;99.90;;;;;;1879246;76;21473;-73
2021/07/08 02:52:37;;;;;;;8.20;3.95;;;21.50;99.90;;;;;;1875069;75;21099;-73
2021/07/08 02:55:06;;;;;;;7.17;3.87;;;21.40;99.90;;;;;;1878418;76;21117;-72
2021/07/08 02:57:34;;;;;;;10.82;4.45;;;21.50;99.90;;;;;;1882130;75;22053;-73
2021/07/08 03:00:01;;;;;;;7.78;4.25;;;21.50;99.90;;;;;;1899936;75;21630;-73
2021/07/08 03:02:29;;;;;;;10.98;4.85;;;21.50;99.90;;;;;;1879322;76;21583;-73
2021/07/08 03:04:56;;;;;;;12.10;5.00;;;21.50;99.90;;;;;;1883857;75;21134;-73
2021/07/08 03:07:24;;;;;;;8.55;5.00;;;21.50;99.90;;;;;;1890929;75;21168;-72
2021/07/08 03:09:51;;;;;;;12.90;4.85;;;21.40;99.90;;;;;;1879094;75;21626;-73
2021/07/08 03:12:19;;;;;;;9.38;5.75;;;21.40;99.90;;;;;;1902657;75;21202;-73
2021/07/08 03:14:46;;;;;;;12.85;5.28;;;21.40;99.90;;;;;;1900079;75;21115;-73
2021/07/08 03:17:14;;;;;;;12.60;5.55;;;21.40;99.90;;;;;;1897766;75;21051;-72
2021/07/08 03:19:41;;;;;;;7.85;5.10;;;21.30;99.90;;;;;;1909935;75;21230;-72
2021/07/08 03:22:09;;;;;;;10.35;5.15;;;21.30;99.90;;;;;;1889072;75;21097;-72
2021/07/08 03:24:36;;;;;;;7.78;4.90;;;21.30;99.90;;;;;;1880515;75;21227;-73
2021/07/08 03:27:04;;;;;;;8.35;4.50;;;21.40;99.90;;;;;;1881629;75;21106;-73
2021/07/08 03:29:31;;;;;;;10.68;4.90;;;21.40;99.90;;;;;;1888306;75;21239;-73
2021/07/08 03:31:59;;;;;;;9.55;5.15;;;21.40;99.90;;;;;;1906940;75;21060;-74
2021/07/08 03:34:27;;;;;;;7.42;4.78;;;21.40;99.90;;;;;;1889282;73;21228;-74
2021/07/08 03:36:54;;;;;;;8.20;4.78;;;21.40;99.90;;;;;;1895626;75;21066;-72
2021/07/08 03:39:21;;;;;;;8.08;4.97;;;21.40;99.90;;;;;;1892246;75;21020;-73
2021/07/08 03:41:49;;;;;;;10.45;5.10;;;21.40;99.90;;;;;;1903872;75;21076;-74
2021/07/08 03:44:16;;;;;;;13.22;5.85;;;21.40;99.90;;;;;;1908442;74;21123;-73
2021/07/08 03:46:44;;;;;;;12.30;5.40;;;21.40;99.90;;;;;;1907326;75;21137;-73
2021/07/08 03:49:12;;;;;;;10.13;5.53;;;21.40;99.90;;;;;;1885171;75;21563;-74
2021/07/08 03:51:40;;;;;;;12.90;5.62;;;21.30;99.90;;;;;;1879374;76;21620;-73
2021/07/08 03:54:07;;;;;;;12.13;6.22;;;21.30;99.90;;;;;;1888630;75;21336;-73
2021/07/08 03:56:35;;;;;;;17.10;6.33;;;21.30;99.90;;;;;;1866004;75;21494;-73
2021/07/08 03:59:02;;;;;;;13.90;5.72;;;21.30;99.90;;;;;;1903332;75;21000;-71
2021/07/08 04:01:30;;;;;;;12.70;5.75;;;21.40;99.90;;;;;;1916381;75;21143;-73
2021/07/08 04:03:57;;;;;;;14.65;5.67;;;21.40;99.90;;;;;;1896344;75;21184;-72
2021/07/08 04:06:25;;;;;;;11.43;6.30;;;21.40;99.90;;;;;;1915698;75;21091;-72
2021/07/08 04:08:52;;;;;;;10.78;6.37;;;21.40;99.90;;;;;;1878992;75;21022;-73
2021/07/08 04:11:20;;;;;;;10.10;6.35;;;21.40;99.90;;;;;;1906815;75;21122;-73
2021/07/08 04:13:47;;;;;;;14.70;6.25;;;21.50;99.90;;;;;;1885859;75;21168;-72
2021/07/08 04:16:15;;;;;;;10.68;5.33;;;21.40;99.90;;;;;;1879173;76;21101;-72
2021/07/08 04:18:43;;;;;;;12.73;6.25;;;21.50;99.90;;;;;;1881503;75;21113;-72
2021/07/08 04:21:10;;;;;;;12.93;5.78;;;21.50;99.90;;;;;;1883970;75;21154;-73
2021/07/08 04:23:38;;;;;;;10.60;5.50;;;21.50;99.90;;;;;;1891777;75;21199;-73
2021/07/08 04:26:05;;;;;;;13.60;5.78;;;21.60;99.90;;;;;;1890994;75;21774;-72
2021/07/08 04:28:33;;;;;;;10.63;5.90;;;21.60;99.90;;;;;;1895407;75;21616;-72
2021/07/08 04:31:01;;;;;;;11.05;5.97;;;21.60;99.90;;;;;;1880066;76;21475;-72
2021/07/08 04:33:28;;;;;;;11.50;6.33;;;21.60;99.90;;;;;;1880049;76;21064;-74
2021/07/08 04:35:56;;;;;;;13.80;6.87;;;21.50;99.90;;;;;;1879992;75;21555;-74
2021/07/08 04:38:23;;;;;;;12.47;6.12;;;21.50;99.90;;;;;;1896201;75;21028;-73
2021/07/08 04:40:51;;;;;;;13.32;6.55;;;21.50;99.90;;;;;;1910535;75;21408;-73
2021/07/08 04:43:18;;;;;;;13.53;6.37;;;21.50;99.90;;;;;;1905314;74;21050;-73
2021/07/08 04:45:47;;;;;;;13.75;6.45;;;21.50;99.90;;;;;;1908060;75;21017;-73
2021/07/08 04:48:15;;;;;;;11.50;6.53;;;21.60;99.90;;;;;;1906672;75;21166;-73
2021/07/08 04:50:43;;;;;;;16.52;6.90;;;21.60;99.90;;;;;;1879475;76;21573;-73
2021/07/08 04:53:18;;;;;;;15.13;7.75;;;21.60;99.90;;;;;;1870597;76;21200;-73
2021/07/08 04:55:46;;;;;;;10.32;6.83;;;21.60;99.90;;;;;;1860476;76;21556;-73
2021/07/08 04:58:14;;;;;;;9.40;6.33;;;21.60;99.90;;;;;;1870284;76;21564;-73
2021/07/08 05:00:41;;;;;;;16.67;6.60;;;21.60;99.90;;;;;;1850044;76;21106;-73
2021/07/08 05:03:09;;;;;;;11.97;6.95;;;21.60;99.90;;;;;;1853441;76;21184;-72
2021/07/08 05:05:38;;;;;;;13.88;7.20;;;21.60;99.90;;;;;;1915170;74;21045;-72
2021/07/08 05:08:06;;;;;;;12.80;7.55;;;21.60;99.90;;;;;;1908239;74;21173;-72
2021/07/08 05:10:34;;;;;;;14.10;7.20;;;21.70;99.90;;;;;;1902048;74;21733;-72
2021/07/08 05:13:01;;;;;;;10.88;6.90;;;21.70;99.90;;;;;;1918276;74;21532;-75
2021/07/08 05:15:29;;;;;;;12.43;6.37;;;21.70;99.90;;;;;;1914870;74;21466;-72
2021/07/08 05:17:56;;;;;;;11.28;6.25;;;21.70;99.90;;;;;;1912339;74;21617;-72
2021/07/08 05:20:26;;;;;;;12.75;6.78;;;21.80;99.90;;;;;;1901522;74;21100;-72
2021/07/08 05:23:02;;;;;;;12.58;5.97;;;21.80;99.90;;;;;;1902613;74;21129;-70
2021/07/08 05:25:26;;;;;;;9.35;5.75;;;21.80;99.90;;;;;;1865777;76;21109;-71
2021/07/08 05:27:54;;;;;;;10.95;5.78;;;21.80;99.90;;;;;;1890903;76;22169;-72
2021/07/08 05:30:21;;;;;;;12.45;5.90;;;21.80;99.90;;;;;;1892913;74;21167;-72
2021/07/08 05:32:49;;;;;;;10.40;5.50;;;21.80;99.90;;;;;;1923686;74;21539;-71
2021/07/08 05:35:17;;;;;;;8.90;5.17;;;21.80;99.90;;;;;;1893341;74;21648;-71
2021/07/08 05:37:44;;;;;;;11.95;5.35;;;21.80;99.90;;;;;;1902816;74;21117;-71
2021/07/08 05:40:12;;;;;;;13.22;5.70;;;21.80;99.90;;;;;;1913246;75;21236;-71
2021/07/08 05:42:39;;;;;;;9.40;5.25;;;21.90;99.90;;;;;;1891036;76;21104;-71
2021/07/08 05:45:08;;;;;;;11.63;5.15;;;21.90;99.90;;;;;;1893837;74;21198;-71
2021/07/08 05:47:35;;;;;;;8.08;4.60;;;21.90;99.90;;;;;;1891335;75;21586;-72
2021/07/08 05:50:04;;;;;;;7.35;4.62;;;21.80;99.90;;;;;;1887243;76;21650;-71
2021/07/08 05:52:32;;;;;;;12.07;5.22;;;21.80;99.90;;;;;;1902120;74;21105;-73
2021/07/08 05:54:59;;;;;;;18.45;6.22;;;21.80;99.90;;;;;;1897402;74;21608;-73
2021/07/08 05:57:27;;;;;;;13.60;6.08;;;21.80;99.90;;;;;;1900287;74;21534;-72
2021/07/08 05:59:55;;;;;;;11.43;5.20;;;21.80;99.90;;;;;;1896324;74;21537;-72
2021/07/08 06:02:22;;;;;;;8.53;4.92;;;21.80;99.90;;;;;;1896406;74;21155;-72
2021/07/08 06:04:50;;;;;;;11.97;5.65;;;21.80;99.90;;;;;;1892104;74;21121;-73
2021/07/08 06:07:17;;;;;;;15.05;5.70;;;21.80;99.90;;;;;;1901400;74;21081;-72
2021/07/08 06:09:45;;;;;;;8.48;4.65;;;21.80;99.90;;;;;;1908104;74;21186;-71
2021/07/08 06:12:12;;;;;;;10.35;5.28;;;21.80;99.90;;;;;;1898704;74;21195;-71
2021/07/08 06:14:40;;;;;;;9.38;5.58;;;21.90;99.90;;;;;;1913067;74;21708;-71
2021/07/08 06:17:07;;;;;;;14.33;5.05;;;22.00;99.90;;;;;;1891270;74;21125;-69
2021/07/08 06:19:35;;;;;;;11.68;5.35;;;22.00;99.90;;;;;;1892650;74;21184;-71
2021/07/08 06:22:03;;;;;;;9.50;5.00;;;22.00;99.90;;;;;;1895944;74;21245;-70
2021/07/08 06:24:31;;;;;;;9.98;5.08;;;22.10;99.90;;;;;;1892125;74;21444;-70
2021/07/08 06:26:59;;;;;;;8.83;4.75;;;22.10;99.90;;;;;;1904150;74;21101;-71
2021/07/08 06:29:26;;;;;;;11.48;4.78;;;22.10;99.90;;;;;;1893557;74;21198;-70
2021/07/08 06:31:53;;;;;;;11.55;4.87;;;22.20;99.90;;;;;;1899107;74;21106;-71
2021/07/08 06:34:21;;;;;;;9.68;4.72;;;22.20;99.90;;;;;;1899273;74;21611;-70
2021/07/08 06:36:49;;;;;;;16.80;5.28;;;22.20;99.90;;;;;;1896516;74;21116;-69
2021/07/08 06:39:16;;;;;;;8.60;4.45;;;22.30;99.90;;;;;;1893602;74;21055;-70
2021/07/08 06:41:44;;;;;;;12.75;5.53;;;22.30;99.90;;;;;;1891641;76;21114;-70
2021/07/08 06:44:11;;;;;;;8.50;4.83;;;22.30;99.90;;;;;;1910454;74;21195;-70
2021/07/08 06:46:39;;;;;;;8.23;4.47;;;22.40;99.90;;;;;;1913645;74;21085;-70
2021/07/08 06:49:08;;;;;;;11.33;4.53;;;22.50;99.90;;;;;;1907560;74;21048;-71
2021/07/08 06:51:36;;;;;;;10.65;4.33;;;22.50;99.90;;;;;;1864582;76;21207;-70
2021/07/08 06:54:05;;;;;;;10.45;4.10;;;22.60;99.90;;;;;;1904829;75;21383;-70
2021/07/08 06:56:32;;;;;;;10.80;4.20;;;22.60;99.90;;;;;;1885720;75;21074;-70
2021/07/08 06:59:00;;;;;;;14.63;4.60;;;22.70;99.90;;;;;;1897013;75;21098;-71
2021/07/08 07:01:27;;;;;;;6.15;3.35;;;22.80;99.90;;;;;;1897896;74;21097;-70
2021/07/08 07:03:55;;;;;;;7.12;3.50;;;22.90;99.90;;;;;;1898850;75;21173;-70
2021/07/08 07:06:22;;;;;;;9.53;3.30;;;22.90;99.90;;;;;;1888414;75;21061;-71
2021/07/08 07:08:50;;;;;;;6.03;3.40;;;22.90;99.90;;;;;;1898532;75;21099;-71
2021/07/08 07:11:17;;;;;;;5.90;2.98;;;23.00;99.90;;;;;;1897891;75;21672;-70
2021/07/08 07:13:45;;;;;;;6.22;2.70;;;23.00;99.90;;;;;;1897733;75;21175;-71
2021/07/08 07:16:12;;;;;;;6.28;2.90;;;23.10;99.90;;;;;;1891388;75;21157;-71
2021/07/08 07:18:40;;;;;;;7.33;3.02;;;23.10;99.90;;;;;;1879572;75;21240;-71
2021/07/08 07:21:11;;;;;;;6.58;2.92;;;23.20;99.90;;;;;;1881029;75;21194;-69
2021/07/08 07:23:42;;;;;;;5.58;2.98;;;23.20;99.90;;;;;;1878073;75;21085;-68
2021/07/08 07:26:10;;;;;;;5.40;2.58;;;23.30;99.90;;;;;;1885278;75;21062;-69
2021/07/08 07:28:37;;;;;;;7.28;2.60;;;23.40;99.90;;;;;;1891133;75;21126;-69
2021/07/08 07:31:06;;;;;;;9.75;2.70;;;23.40;99.90;;;;;;1896819;74;21133;-69
2021/07/08 07:33:34;;;;;;;6.62;2.87;;;23.40;99.90;;;;;;1890579;75;21176;-68
2021/07/08 07:36:01;;;;;;;7.08;3.05;;;23.50;99.90;;;;;;1883376;75;21118;-69
2021/07/08 07:38:29;;;;;;;7.62;2.90;;;23.50;99.90;;;;;;1880495;75;21102;-68
2021/07/08 07:40:56;;;;;;;7.85;2.50;;;23.60;99.90;;;;;;1879500;75;21086;-68
2021/07/08 07:43:24;;;;;;;6.37;2.42;;;23.70;99.90;;;;;;1880137;75;21433;-69
2021/07/08 07:45:52;;;;;;;5.85;2.30;;;23.70;99.90;;;;;;1883677;75;21031;-69
2021/07/08 07:48:19;;;;;;;5.70;2.15;;;23.80;99.90;;;;;;1894945;75;21065;-69
2021/07/08 07:50:47;;;;;;;5.10;2.45;;;23.80;99.90;;;;;;1890902;75;21081;-69
2021/07/08 07:53:15;;;;;;;5.25;2.33;;;23.90;99.90;;;;;;1882973;75;21142;-70
2021/07/08 07:55:42;;;;;;;7.60;2.22;;;23.90;99.90;;;;;;1889355;75;21156;-70
2021/07/08 07:58:10;;;;;;;8.75;2.55;;;24.00;99.90;;;;;;1883878;75;21478;-69
2021/07/08 08:00:37;;;;;;;9.08;2.50;;;24.00;99.90;;;;;;1884462;75;21141;-69
2021/07/08 08:03:05;;;;;;;5.22;2.12;;;24.00;99.90;;;;;;1870214;76;21090;-70
2021/07/08 08:10:49;;;;;;;8.33;2.20;;;24.10;99.90;;;;;;1890165;75;21238;-68
2021/07/08 08:13:17;;;;;;;5.30;2.15;;;24.10;99.90;;;;;;1892783;75;21650;-68
2021/07/08 08:15:45;;;;;;;3.85;2.10;;;24.10;99.90;;;;;;1891452;75;21131;-69
2021/07/08 08:18:13;;;;;;;4.20;2.35;;;24.10;99.90;;;;;;1880469;75;21120;-69
2021/07/08 08:20:40;;;;;;;5.97;2.30;;;24.20;99.90;;;;;;1890458;75;21072;-68
2021/07/08 08:23:08;;;;;;;11.35;2.30;;;24.20;99.90;;;;;;1879677;75;21227;-68
2021/07/08 08:25:35;;;;;;;4.03;2.00;;;24.20;99.90;;;;;;1878938;76;21107;-68
2021/07/08 08:28:03;;;;;;;5.90;2.30;;;24.20;99.90;;;;;;1893783;75;22139;-67
2021/07/08 08:30:31;;;;;;;6.53;2.02;;;24.20;99.90;;;;;;1896632;75;21088;-68
2021/07/08 08:32:58;;;;;;;5.65;2.25;;;24.20;99.90;;;;;;1892087;75;21102;-68
2021/07/08 08:35:26;;;;;;;7.00;2.20;;;24.30;99.90;;;;;;1890505;75;22094;-68
2021/07/08 08:37:53;;;;;;;7.05;2.60;;;24.30;99.90;;;;;;1898056;75;21614;-69
2021/07/08 08:40:22;;;;;;;6.90;2.47;;;24.30;99.90;;;;;;1893992;75;21183;-68
2021/07/08 08:42:49;;;;;;;6.35;2.30;;;24.40;99.90;;;;;;1888942;75;21133;-68
2021/07/08 08:45:18;;;;;;;5.12;2.10;;;24.40;99.90;;;;;;1879543;75;21170;-68
2021/07/08 08:48:06;;;;;;;6.42;1.98;;;24.50;99.90;;;;;;1893336;75;21716;-68
2021/07/08 08:50:39;;;;;;;7.45;1.80;;;24.50;99.90;;;;;;1911872;75;21097;-68
2021/07/08 08:53:08;;;;;;;6.67;2.20;;;24.50;99.90;;;;;;1877473;75;21111;-68
2021/07/08 08:55:37;;;;;;;6.53;2.47;;;24.50;99.90;;;;;;1876292;76;21200;-68
2021/07/08 08:58:07;;;;;;;5.97;2.17;;;24.60;99.90;;;;;;1896415;75;21200;-68
2021/07/08 09:00:43;;;;;;;6.00;2.02;;;24.70;99.90;;;;;;1881249;75;21126;-68
2021/07/08 09:03:13;;;;;;;6.03;2.10;;;24.70;99.90;;;;;;1881156;75;21127;-68
2021/07/08 09:05:43;;;;;;;5.33;2.00;;;24.70;99.90;;;;;;1862774;76;21129;-69
2021/07/08 09:08:21;;;;;;;7.97;2.15;;;24.80;99.90;;;;;;1899422;75;21016;-69
2021/07/08 09:11:14;;;;;;;8.60;1.77;;;24.90;99.90;;;;;;1889438;75;21118;-68
2021/07/08 09:13:48;;;;;;;4.92;2.10;;;24.90;99.90;;;;;;1902527;75;21617;-70
2021/07/08 09:16:21;;;;;;;4.53;1.90;;;24.90;99.90;;;;;;1907582;75;21088;-69
2021/07/08 09:19:10;;;;;;;5.10;2.20;;;25.00;99.90;;;;;;1897492;75;21062;-70
2021/07/08 09:21:43;;;;;;;7.83;2.10;;;25.00;99.90;;;;;;1879374;76;22031;-69
2021/07/08 09:24:23;;;;;;;6.25;2.00;;;25.00;99.90;;;;;;1879770;75;21050;-71
2021/07/08 09:26:59;;;;;;;3.52;1.82;;;25.00;99.90;;;;;;1911862;74;21126;-70
2021/07/08 09:29:35;;;;;;;6.60;1.90;;;25.00;99.90;;;;;;1891155;75;21634;-71
2021/07/08 09:32:21;;;;;;;5.97;2.20;;;25.00;99.90;;;;;;1880945;75;21105;-71
2021/07/08 09:34:54;;;;;;;5.12;2.05;;;25.10;99.90;;;;;;1886509;75;21674;-71
2021/07/08 09:37:24;;;;;;;6.72;2.12;;;25.20;99.90;;;;;;1911754;75;21523;-71
2021/07/08 09:40:00;;;;;;;9.08;2.10;;;25.30;99.90;;;;;;1902246;74;21197;-71
2021/07/08 09:42:46;;;;;;;6.62;1.75;;;25.20;99.90;;;;;;1878705;76;21097;-69
2021/07/08 09:45:16;;;;;;;9.35;2.27;;;25.30;99.90;;;;;;1881364;75;21191;-70
2021/07/08 09:47:48;;;;;;;5.67;1.82;;;25.40;99.90;;;;;;1902491;75;21058;-69
2021/07/08 09:50:24;;;;;;;9.20;2.12;;;25.50;99.90;;;;;;1881141;75;21284;-69
2021/07/08 09:53:05;;;;;;;5.97;2.12;;;25.60;99.90;;;;;;1891026;75;21152;-69
2021/07/08 09:56:00;;;;;;;3.90;1.82;;;25.70;99.90;;;;;;1911881;75;22164;-69
2021/07/08 09:58:24;;;;;;;4.97;2.05;;;25.70;99.90;;;;;;1895334;75;21129;-69
2021/07/08 10:00:52;;;;;;;5.35;2.20;;;25.60;99.90;;;;;;1911534;75;21615;-68
2021/07/08 10:03:20;;;;;;;5.72;1.90;;;25.70;99.90;;;;;;1895754;75;21173;-69
2021/07/08 10:05:48;;;;;;;9.20;2.15;;;25.70;99.90;;;;;;1885867;75;21089;-70
2021/07/08 10:08:15;;;;;;;6.67;1.98;;;25.80;99.90;;;;;;1879277;75;21172;-69
2021/07/08 10:10:43;;;;;;;6.80;1.98;;;25.90;99.90;;;;;;1879121;76;21109;-69
2021/07/08 10:13:11;;;;;;;6.85;2.50;;;25.90;99.90;;;;;;1879285;76;21211;-70
2021/07/08 10:15:41;;;;;;;8.78;2.27;;;26.00;99.90;;;;;;1881591;75;21105;-69
2021/07/08 10:18:12;;;;;;;6.03;2.10;;;26.00;99.90;;;;;;1881427;75;21144;-69
2021/07/08 10:20:39;;;;;;;8.18;2.22;;;26.10;99.90;;;;;;1889098;75;21561;-69
2021/07/08 10:23:08;;;;;;;6.67;2.15;;;26.10;99.90;;;;;;1902980;75;22435;-69
2021/07/08 10:25:36;;;;;;;6.83;2.33;;;26.20;99.90;;;;;;1890535;75;21071;-70
2021/07/08 10:28:05;;;;;;;3.62;1.87;;;26.20;99.90;;;;;;1881036;75;21188;-69
2021/07/08 10:30:33;;;;;;;6.67;2.17;;;26.20;99.90;;;;;;1892669;75;21092;-69
2021/07/08 10:33:02;;;;;;;7.05;2.27;;;26.30;99.90;;;;;;1894974;75;21180;-69
2021/07/08 10:35:47;;;;;;;10.03;2.10;;;26.40;99.90;;;;;;1883518;75;21112;-69
2021/07/08 10:38:43;;;;;;;5.95;2.17;;;26.40;99.90;;;;;;1880219;75;21036;-70
2021/07/08 10:41:13;;;;;;;6.72;2.20;;;26.50;99.90;;;;;;1906560;75;21108;-70
2021/07/08 10:43:43;;;;;;;10.60;2.58;;;26.50;99.90;;;;;;1913031;75;21039;-70
2021/07/08 10:46:14;;;;;;;7.45;2.12;;;26.40;99.90;;;;;;1909049;75;20983;-70
2021/07/08 10:48:46;;;;;;;7.40;2.22;;;26.40;99.90;;;;;;1880238;76;21509;-70
2021/07/08 10:51:25;;;;;;;11.10;2.25;;;26.40;99.60;;;;;;1881742;75;22012;-69
2021/07/08 10:53:53;;;;;;;8.15;2.12;;;26.40;99.90;;;;;;1912310;75;21308;-70
2021/07/08 10:56:22;;;;;;;8.93;2.27;;;26.50;99.90;;;;;;1899893;74;21562;-70
2021/07/08 10:58:57;;;;;;;5.55;2.42;;;26.60;99.90;;;;;;1891759;75;21098;-70
2021/07/08 11:01:28;;;;;;;7.40;2.62;;;26.70;99.90;;;;;;1883095;75;21035;-70
2021/07/08 11:04:00;;;;;;;11.38;2.37;;;26.70;99.90;;;;;;1890170;75;21198;-70
2021/07/08 11:06:33;;;;;;;5.15;2.27;;;26.70;99.90;;;;;;1887546;75;21103;-70
2021/07/08 11:09:06;;;;;;;4.75;1.95;;;26.80;99.90;;;;;;1879689;75;21767;-71
2021/07/08 11:11:37;;;;;;;14.25;2.40;;;26.70;99.90;;;;;;1904801;75;21086;-69
2021/07/08 11:14:18;;;;;;;5.90;2.20;;;26.80;99.90;;;;;;1891812;75;21516;-69
2021/07/08 11:16:52;;;;;;;6.63;2.80;;;26.90;99.90;;;;;;1886074;74;21559;-69
2021/07/08 11:19:25;;;;;;;5.87;2.12;;;26.80;99.90;;;;;;1879140;76;21078;-68
2021/07/08 11:22:08;;;;;;;7.40;1.90;;;26.80;99.90;;;;;;1883260;75;21202;-68
2021/07/08 11:24:44;;;;;;;6.10;2.05;;;26.70;99.90;;;;;;1882863;75;21156;-70
2021/07/08 11:27:14;;;;;;;8.28;2.25;;;26.70;99.90;;;;;;1889583;75;21121;-71
2021/07/08 11:29:50;;;;;;;7.85;2.17;;;26.60;99.90;;;;;;1879183;76;21355;-67
2021/07/08 11:32:24;;;;;;;6.58;2.40;;;26.50;99.90;;;;;;1895805;75;21095;-69
2021/07/08 11:34:59;;;;;;;9.20;2.40;;;26.40;99.90;;;;;;1916176;75;21193;-69
2021/07/08 11:37:47;;;;;;;5.83;2.08;;;26.40;99.90;;;;;;1895338;75;21479;-69
2021/07/08 11:40:01;;;;;;;4.62;2.35;;;26.40;99.90;;;;;;1872152;75;21978;-68
2021/07/08 11:42:34;;;;;;;5.05;2.08;;;26.30;99.90;;;;;;1897212;75;21112;-70
2021/07/08 11:45:07;;;;;;;5.62;2.00;;;26.30;99.90;;;;;;1883029;74;21658;-69
2021/07/08 11:47:52;;;;;;;5.22;2.00;;;26.30;99.90;;;;;;1887719;75;21292;-70
2021/07/08 11:50:28;;;;;;;6.25;2.58;;;26.30;99.90;;;;;;1912393;75;21044;-69
2021/07/08 11:53:17;;;;;;;6.60;2.12;;;26.30;99.90;;;;;;1896288;74;21064;-69
2021/07/08 11:55:46;;;;;;;7.60;2.33;;;26.30;99.90;;;;;;1879302;76;21130;-70
2021/07/08 11:58:21;;;;;;;5.47;2.33;;;26.20;99.90;;;;;;1893325;75;21094;-70
2021/07/08 12:00:47;;;;;;;10.03;2.30;;;26.30;99.90;;;;;;1897277;75;21160;-68
2021/07/08 12:03:32;;;;;;;5.12;2.10;;;26.40;99.90;;;;;;1880223;75;21177;-68
2021/07/08 12:06:04;;;;;;;7.25;2.20;;;26.50;99.90;;;;;;1894875;75;21058;-68
2021/07/08 12:08:35;;;;;;;6.62;2.33;;;26.50;99.90;;;;;;1885950;75;21335;-68
2021/07/08 12:11:12;;;;;;;7.72;2.02;;;26.50;99.90;;;;;;1877997;76;21171;-70
2021/07/08 12:14:00;;;;;;;8.08;1.92;;;26.60;99.90;;;;;;1878271;75;21146;-69
2021/07/08 12:16:36;;;;;;;7.42;2.08;;;26.70;99.90;;;;;;1879282;76;21128;-69
2021/07/08 12:19:08;;;;;;;7.53;2.42;;;26.60;99.30;;;;;;1897613;75;21054;-69
2021/07/08 12:21:42;;;;;;;5.28;2.10;;;26.60;99.90;;;;;;1893922;75;21191;-70
2021/07/08 12:24:23;;;;;;;6.50;2.20;;;26.70;99.90;;;;;;1867312;75;21660;-70
2021/07/08 12:26:52;;;;;;;6.80;2.58;;;26.70;99.60;;;;;;1898201;75;21125;-71
2021/07/08 12:29:26;;;;;;;6.47;2.15;;;26.80;99.40;;;;;;1898528;75;21107;-70
2021/07/08 12:31:56;;;;;;;8.08;2.27;;;26.90;99.90;;;;;;1908202;75;21012;-70
2021/07/08 12:34:39;;;;;;;4.53;1.77;;;26.90;99.70;;;;;;1914535;74;21083;-70
2021/07/08 12:37:23;;;;;;;7.37;2.20;;;27.00;99.40;;;;;;1887614;75;21598;-70
2021/07/08 12:39:59;;;;;;;6.37;1.80;;;26.90;99.90;;;;;;1881477;75;21099;-69
2021/07/08 12:42:29;;;;;;;5.83;2.15;;;26.80;98.70;;;;;;1882241;75;21071;-69
2021/07/08 12:45:02;;;;;;;7.72;2.30;;;26.80;98.10;;;;;;1889560;75;21104;-70
2021/07/08 12:47:30;;;;;;;5.45;2.08;;;26.70;98.00;;;;;;1888560;75;21968;-70
2021/07/08 12:50:00;;;;;;;6.25;2.25;;;26.70;98.40;;;;;;1899345;74;21579;-69
2021/07/08 12:52:28;;;;;;;7.50;2.00;;;26.60;98.60;;;;;;1879608;75;21190;-71
2021/07/08 12:54:55;;;;;;;6.55;2.10;;;26.60;99.40;;;;;;1880703;75;21121;-71
2021/07/08 12:57:23;;;;;;;26.65;2.52;;;26.60;99.30;;;;;;1880967;76;21017;-71
2021/07/08 12:59:58;;;;;;;8.73;2.20;;;26.60;99.90;;;;;;1898200;75;21058;-66
2021/07/08 13:02:31;;;;;;;7.83;2.45;;;25.60;99.90;;;;;;1883256;75;21057;-66